Manuccio II — IZFX — position and weather

sailwx.info

Track history (hours):
 
Tides and Currents Weather Stations Pressure Air Temp Water Temp Dewpoint Dewpoint Depression Visibility Wind Speed Wind Dir Waves Ship Positions

Manuccio II

Last reported at 2018-Jan-29 01:51 UTC. Time now 2018-Apr-22 19:52 UTC.
Position N 42°36' E 014°36'.
Warning: this ship's position is months out of date.

Length 28 m.

MMSI: 247151150.

Date/timePositionNaut miles runAvg speedWind from/ knotsBaromVisibWave heightAir tempDewpointWater temp
2018-Jan-29 01:51N 42°36' E 014°36'3 9.3
2018-Jan-29 01:30N 42°34' E 014°32'1 1.9
2018-Jan-29 01:00N 42°34' E 014°31'2 3.6
2018-Jan-29 00:23N 42°33' E 014°28'5 3.7
2018-Jan-28 23:04N 42°31' E 014°22'0 3.7
2018-Jan-28 22:57N 42°31' E 014°21'4 9.4
2018-Jan-28 22:30N 42°29' E 014°16'2 3.9
2018-Jan-28 21:55N 42°28' E 014°14'0 0.0
2018-Jan-28 21:29N 42°28' E 014°14'  
Track history (hours):
 
Tides and Currents Weather Stations Pressure Air Temp Water Temp Dewpoint Dewpoint Depression Visibility Wind Speed Wind Dir Waves Ship Positions

Manuccio II

Last reported at 2018-Jan-29 01:51 UTC. Time now 2018-Apr-22 19:52 UTC.
Position N 42°36' E 014°36'.
Warning: this ship's position is months out of date.

Length 28 m.

MMSI: 247151150.

Date/timePositionNaut miles runAvg speedWind from/ knotsBaromVisibWave heightAir tempDewpointWater temp
2018-Jan-29 01:51N 42°36' E 014°36'3 9.3
2018-Jan-29 01:30N 42°34' E 014°32'1 1.9
2018-Jan-29 01:00N 42°34' E 014°31'2 3.6
2018-Jan-29 00:23N 42°33' E 014°28'5 3.7
2018-Jan-28 23:04N 42°31' E 014°22'0 3.7
2018-Jan-28 22:57N 42°31' E 014°21'4 9.4
2018-Jan-28 22:30N 42°29' E 014°16'2 3.9
2018-Jan-28 21:55N 42°28' E 014°14'0 0.0
2018-Jan-28 21:29N 42°28' E 014°14'  

Dump ship's entire track history